Terminal Aerodrome Forecast
Issued by NWS

Home | Current Version | Previous Version | Graphics & Text | Print | Product List | Glossary On
Versions: 1 2 3 4 5 6 7 8 9 10 11 12 13 14 15 16 17 18 19 20 21 22 23 24 25 26 27 28 29 30 31 32 33 34 35 36
000
FTUS43 KGRB 271700
TAFRHI
TAF
KRHI 271733Z 2718/2818 VRB03KT P6SM SCT035
      TEMPO 2718/2720 BKN035
     FM280000 VRB03KT P6SM SCT250
     FM280700 VRB03KT 5SM BR SCT200
      TEMPO 2809/2812 1SM BR
     FM281400 15005KT P6SM BKN200=

USA.gov is the U.S. government's official web portal to all federal, state and local government web resources and services.